sensor_id;sensor_type;location;lat;lon;timestamp;P1;durP1;ratioP1;P2;durP2;ratioP2
55190;SDS011;41070;50.360;18.742;2023-08-08T00:00:22;1.40;;;0.40;;
55190;SDS011;41070;50.360;18.742;2023-08-08T00:03:10;0.80;;;0.50;;
55190;SDS011;41070;50.360;18.742;2023-08-08T00:05:38;0.80;;;0.60;;
55190;SDS011;41070;50.360;18.742;2023-08-08T00:08:06;1.40;;;0.60;;
55190;SDS011;41070;50.360;18.742;2023-08-08T00:10:33;1.60;;;0.60;;
55190;SDS011;41070;50.360;18.742;2023-08-08T00:13:01;0.50;;;0.30;;
55190;SDS011;41070;50.360;18.742;2023-08-08T00:15:28;0.70;;;0.40;;
55190;SDS011;41070;50.360;18.742;2023-08-08T00:17:57;0.90;;;0.50;;
55190;SDS011;41070;50.360;18.742;2023-08-08T00:20:24;1.10;;;0.40;;
55190;SDS011;41070;50.360;18.742;2023-08-08T00:22:52;0.60;;;0.30;;
55190;SDS011;41070;50.360;18.742;2023-08-08T00:25:19;1.30;;;0.70;;
55190;SDS011;41070;50.360;18.742;2023-08-08T00:27:47;1.40;;;0.70;;
55190;SDS011;41070;50.360;18.742;2023-08-08T00:30:14;1.70;;;0.60;;
55190;SDS011;41070;50.360;18.742;2023-08-08T00:32:42;0.60;;;0.50;;
55190;SDS011;41070;50.360;18.742;2023-08-08T00:35:10;2.10;;;0.60;;
55190;SDS011;41070;50.360;18.742;2023-08-08T00:37:38;0.90;;;0.40;;
55190;SDS011;41070;50.360;18.742;2023-08-08T00:40:06;0.60;;;0.50;;
55190;SDS011;41070;50.360;18.742;2023-08-08T00:42:34;0.70;;;0.70;;
55190;SDS011;41070;50.360;18.742;2023-08-08T00:45:01;1.50;;;0.50;;
55190;SDS011;41070;50.360;18.742;2023-08-08T00:47:33;2.40;;;0.70;;
55190;SDS011;41070;50.360;18.742;2023-08-08T00:50:02;0.90;;;0.80;;
55190;SDS011;41070;50.360;18.742;2023-08-08T00:52:30;0.90;;;0.60;;
55190;SDS011;41070;50.360;18.742;2023-08-08T00:54:58;0.90;;;0.60;;
55190;SDS011;41070;50.360;18.742;2023-08-08T00:57:28;1.20;;;0.70;;
55190;SDS011;41070;50.360;18.742;2023-08-08T00:59:56;1.30;;;0.60;;
55190;SDS011;41070;50.360;18.742;2023-08-08T01:02:23;0.90;;;0.70;;
55190;SDS011;41070;50.360;18.742;2023-08-08T01:04:51;2.30;;;0.80;;
55190;SDS011;41070;50.360;18.742;2023-08-08T01:10:29;3.10;;;0.70;;
55190;SDS011;41070;50.360;18.742;2023-08-08T01:13:00;1.50;;;0.90;;
55190;SDS011;41070;50.360;18.742;2023-08-08T01:15:33;1.30;;;0.70;;
55190;SDS011;41070;50.360;18.742;2023-08-08T01:18:06;2.70;;;1.10;;
55190;SDS011;41070;50.360;18.742;2023-08-08T01:20:35;1.10;;;0.70;;
55190;SDS011;41070;50.360;18.742;2023-08-08T01:23:24;8.20;;;0.90;;
55190;SDS011;41070;50.360;18.742;2023-08-08T01:25:57;1.50;;;0.70;;
55190;SDS011;41070;50.360;18.742;2023-08-08T01:28:25;2.50;;;0.80;;
55190;SDS011;41070;50.360;18.742;2023-08-08T01:30:53;1.80;;;1.00;;
55190;SDS011;41070;50.360;18.742;2023-08-08T01:33:21;2.00;;;0.90;;
55190;SDS011;41070;50.360;18.742;2023-08-08T01:36:00;2.60;;;1.00;;
55190;SDS011;41070;50.360;18.742;2023-08-08T01:38:34;2.20;;;1.20;;
55190;SDS011;41070;50.360;18.742;2023-08-08T01:41:06;1.20;;;0.90;;
55190;SDS011;41070;50.360;18.742;2023-08-08T01:43:35;4.70;;;1.00;;
55190;SDS011;41070;50.360;18.742;2023-08-08T01:46:06;2.30;;;0.80;;
55190;SDS011;41070;50.360;18.742;2023-08-08T01:48:34;2.10;;;0.80;;
55190;SDS011;41070;50.360;18.742;2023-08-08T01:51:02;3.30;;;1.10;;
55190;SDS011;41070;50.360;18.742;2023-08-08T01:53:30;5.40;;;1.10;;
55190;SDS011;41070;50.360;18.742;2023-08-08T01:55:58;3.80;;;1.00;;
55190;SDS011;41070;50.360;18.742;2023-08-08T01:58:25;2.00;;;0.90;;
55190;SDS011;41070;50.360;18.742;2023-08-08T02:00:53;2.40;;;1.20;;
55190;SDS011;41070;50.360;18.742;2023-08-08T02:03:20;3.10;;;0.90;;
55190;SDS011;41070;50.360;18.742;2023-08-08T02:05:48;2.40;;;1.20;;
55190;SDS011;41070;50.360;18.742;2023-08-08T02:08:15;2.80;;;1.30;;
55190;SDS011;41070;50.360;18.742;2023-08-08T02:10:44;1.30;;;0.90;;
55190;SDS011;41070;50.360;18.742;2023-08-08T02:13:12;1.70;;;1.40;;
55190;SDS011;41070;50.360;18.742;2023-08-08T02:15:39;3.70;;;1.20;;
55190;SDS011;41070;50.360;18.742;2023-08-08T02:18:07;1.50;;;1.00;;
55190;SDS011;41070;50.360;18.742;2023-08-08T02:20:36;4.00;;;1.10;;
55190;SDS011;41070;50.360;18.742;2023-08-08T02:23:04;2.60;;;1.20;;
55190;SDS011;41070;50.360;18.742;2023-08-08T02:25:31;2.10;;;0.90;;
55190;SDS011;41070;50.360;18.742;2023-08-08T02:27:59;1.70;;;1.20;;
55190;SDS011;41070;50.360;18.742;2023-08-08T02:30:26;1.60;;;0.80;;
55190;SDS011;41070;50.360;18.742;2023-08-08T02:32:54;1.90;;;1.00;;
55190;SDS011;41070;50.360;18.742;2023-08-08T02:35:21;2.10;;;0.70;;
55190;SDS011;41070;50.360;18.742;2023-08-08T02:37:49;2.00;;;1.00;;
55190;SDS011;41070;50.360;18.742;2023-08-08T02:40:17;3.10;;;1.00;;
55190;SDS011;41070;50.360;18.742;2023-08-08T02:42:44;2.70;;;1.00;;
55190;SDS011;41070;50.360;18.742;2023-08-08T02:45:12;3.30;;;1.00;;
55190;SDS011;41070;50.360;18.742;2023-08-08T02:47:39;2.90;;;0.90;;
55190;SDS011;41070;50.360;18.742;2023-08-08T02:50:07;2.30;;;1.30;;
55190;SDS011;41070;50.360;18.742;2023-08-08T02:52:35;1.90;;;1.00;;
55190;SDS011;41070;50.360;18.742;2023-08-08T02:55:02;3.30;;;1.00;;
55190;SDS011;41070;50.360;18.742;2023-08-08T02:57:30;1.90;;;1.00;;
55190;SDS011;41070;50.360;18.742;2023-08-08T02:59:58;1.80;;;0.90;;
55190;SDS011;41070;50.360;18.742;2023-08-08T03:02:25;3.40;;;0.80;;
55190;SDS011;41070;50.360;18.742;2023-08-08T03:04:53;3.20;;;0.90;;
55190;SDS011;41070;50.360;18.742;2023-08-08T03:07:20;1.90;;;0.70;;
55190;SDS011;41070;50.360;18.742;2023-08-08T03:09:48;2.50;;;1.00;;
55190;SDS011;41070;50.360;18.742;2023-08-08T03:12:16;3.40;;;0.90;;
55190;SDS011;41070;50.360;18.742;2023-08-08T03:14:43;3.30;;;1.40;;
55190;SDS011;41070;50.360;18.742;2023-08-08T03:17:11;1.30;;;0.80;;
55190;SDS011;41070;50.360;18.742;2023-08-08T03:19:38;2.00;;;1.10;;
55190;SDS011;41070;50.360;18.742;2023-08-08T03:22:06;3.10;;;1.10;;
55190;SDS011;41070;50.360;18.742;2023-08-08T03:24:33;1.40;;;0.70;;
55190;SDS011;41070;50.360;18.742;2023-08-08T03:27:01;2.70;;;1.00;;
55190;SDS011;41070;50.360;18.742;2023-08-08T03:29:29;2.20;;;1.20;;
55190;SDS011;41070;50.360;18.742;2023-08-08T03:31:57;2.20;;;0.90;;
55190;SDS011;41070;50.360;18.742;2023-08-08T03:34:24;2.10;;;1.30;;
55190;SDS011;41070;50.360;18.742;2023-08-08T03:36:52;2.70;;;1.10;;
55190;SDS011;41070;50.360;18.742;2023-08-08T03:39:19;1.30;;;1.20;;
55190;SDS011;41070;50.360;18.742;2023-08-08T03:41:47;1.50;;;1.00;;
55190;SDS011;41070;50.360;18.742;2023-08-08T03:44:15;2.40;;;1.00;;
55190;SDS011;41070;50.360;18.742;2023-08-08T03:46:42;3.40;;;1.30;;
55190;SDS011;41070;50.360;18.742;2023-08-08T03:49:10;3.30;;;1.30;;
55190;SDS011;41070;50.360;18.742;2023-08-08T03:51:38;2.50;;;1.30;;
55190;SDS011;41070;50.360;18.742;2023-08-08T03:54:05;3.40;;;1.30;;
55190;SDS011;41070;50.360;18.742;2023-08-08T03:56:33;2.40;;;1.20;;
55190;SDS011;41070;50.360;18.742;2023-08-08T03:59:00;2.10;;;1.20;;
55190;SDS011;41070;50.360;18.742;2023-08-08T04:01:28;3.00;;;1.30;;
55190;SDS011;41070;50.360;18.742;2023-08-08T04:03:55;2.30;;;1.30;;
55190;SDS011;41070;50.360;18.742;2023-08-08T04:06:25;3.70;;;1.30;;
55190;SDS011;41070;50.360;18.742;2023-08-08T04:08:52;1.90;;;1.10;;
55190;SDS011;41070;50.360;18.742;2023-08-08T04:11:20;2.50;;;1.60;;
55190;SDS011;41070;50.360;18.742;2023-08-08T04:13:48;2.90;;;1.30;;
55190;SDS011;41070;50.360;18.742;2023-08-08T04:16:15;4.70;;;1.60;;
55190;SDS011;41070;50.360;18.742;2023-08-08T04:18:45;4.50;;;1.30;;
55190;SDS011;41070;50.360;18.742;2023-08-08T04:21:14;2.90;;;1.40;;
55190;SDS011;41070;50.360;18.742;2023-08-08T04:23:43;3.70;;;1.60;;
55190;SDS011;41070;50.360;18.742;2023-08-08T04:26:12;5.60;;;1.70;;
55190;SDS011;41070;50.360;18.742;2023-08-08T04:28:42;5.90;;;1.80;;
55190;SDS011;41070;50.360;18.742;2023-08-08T04:31:09;2.70;;;1.20;;
55190;SDS011;41070;50.360;18.742;2023-08-08T04:33:37;5.20;;;1.70;;
55190;SDS011;41070;50.360;18.742;2023-08-08T04:36:06;2.00;;;1.20;;
55190;SDS011;41070;50.360;18.742;2023-08-08T04:38:33;3.30;;;1.40;;
55190;SDS011;41070;50.360;18.742;2023-08-08T04:41:01;3.30;;;1.60;;
55190;SDS011;41070;50.360;18.742;2023-08-08T04:43:29;4.30;;;1.90;;
55190;SDS011;41070;50.360;18.742;2023-08-08T04:46:01;3.90;;;1.30;;
55190;SDS011;41070;50.360;18.742;2023-08-08T04:48:31;3.70;;;1.30;;
55190;SDS011;41070;50.360;18.742;2023-08-08T04:51:08;3.40;;;1.30;;
55190;SDS011;41070;50.360;18.742;2023-08-08T04:53:41;2.40;;;1.10;;
55190;SDS011;41070;50.360;18.742;2023-08-08T04:56:18;5.10;;;1.60;;
55190;SDS011;41070;50.360;18.742;2023-08-08T04:58:48;3.90;;;1.50;;
55190;SDS011;41070;50.360;18.742;2023-08-08T05:01:19;2.50;;;1.70;;
55190;SDS011;41070;50.360;18.742;2023-08-08T05:03:48;4.90;;;1.80;;
55190;SDS011;41070;50.360;18.742;2023-08-08T05:06:40;4.10;;;1.60;;
55190;SDS011;41070;50.360;18.742;2023-08-08T05:09:12;3.20;;;1.40;;
55190;SDS011;41070;50.360;18.742;2023-08-08T05:12:01;1.80;;;1.30;;
55190;SDS011;41070;50.360;18.742;2023-08-08T05:14:37;5.30;;;1.60;;
55190;SDS011;41070;50.360;18.742;2023-08-08T05:17:07;4.00;;;2.10;;
55190;SDS011;41070;50.360;18.742;2023-08-08T05:19:36;4.40;;;1.80;;
55190;SDS011;41070;50.360;18.742;2023-08-08T05:23:01;3.00;;;1.60;;
55190;SDS011;41070;50.360;18.742;2023-08-08T05:26:09;3.50;;;1.70;;
55190;SDS011;41070;50.360;18.742;2023-08-08T05:29:07;3.10;;;1.50;;
55190;SDS011;41070;50.360;18.742;2023-08-08T05:31:55;2.80;;;1.50;;
55190;SDS011;41070;50.360;18.742;2023-08-08T05:34:26;3.80;;;1.80;;
55190;SDS011;41070;50.360;18.742;2023-08-08T05:36:55;4.60;;;1.40;;
55190;SDS011;41070;50.360;18.742;2023-08-08T05:39:24;3.00;;;1.60;;
55190;SDS011;41070;50.360;18.742;2023-08-08T05:41:54;4.50;;;1.70;;
55190;SDS011;41070;50.360;18.742;2023-08-08T05:44:25;4.00;;;1.60;;
55190;SDS011;41070;50.360;18.742;2023-08-08T05:46:53;3.20;;;1.60;;
55190;SDS011;41070;50.360;18.742;2023-08-08T05:49:26;2.60;;;1.70;;
55190;SDS011;41070;50.360;18.742;2023-08-08T05:51:54;4.80;;;2.00;;
55190;SDS011;41070;50.360;18.742;2023-08-08T05:54:25;4.20;;;1.80;;
55190;SDS011;41070;50.360;18.742;2023-08-08T05:57:16;4.30;;;1.60;;
55190;SDS011;41070;50.360;18.742;2023-08-08T06:00:27;4.00;;;1.70;;
55190;SDS011;41070;50.360;18.742;2023-08-08T06:07:24;4.00;;;1.70;;
55190;SDS011;41070;50.360;18.742;2023-08-08T06:10:09;3.10;;;1.30;;
55190;SDS011;41070;50.360;18.742;2023-08-08T06:12:59;3.20;;;1.50;;
55190;SDS011;41070;50.360;18.742;2023-08-08T06:15:28;2.90;;;1.20;;
55190;SDS011;41070;50.360;18.742;2023-08-08T06:17:56;2.30;;;1.30;;
55190;SDS011;41070;50.360;18.742;2023-08-08T06:20:46;1.80;;;1.10;;
55190;SDS011;41070;50.360;18.742;2023-08-08T06:23:33;1.90;;;1.10;;
55190;SDS011;41070;50.360;18.742;2023-08-08T06:26:04;2.80;;;1.70;;
55190;SDS011;41070;50.360;18.742;2023-08-08T06:28:48;1.70;;;1.40;;
55190;SDS011;41070;50.360;18.742;2023-08-08T06:31:18;1.50;;;1.00;;
55190;SDS011;41070;50.360;18.742;2023-08-08T06:33:46;1.90;;;1.20;;
55190;SDS011;41070;50.360;18.742;2023-08-08T06:36:39;3.60;;;0.90;;
55190;SDS011;41070;50.360;18.742;2023-08-08T06:39:14;2.90;;;1.30;;
55190;SDS011;41070;50.360;18.742;2023-08-08T06:45:01;1.80;;;1.30;;
55190;SDS011;41070;50.360;18.742;2023-08-08T06:47:52;1.60;;;1.20;;
55190;SDS011;41070;50.360;18.742;2023-08-08T06:50:41;3.40;;;1.30;;
55190;SDS011;41070;50.360;18.742;2023-08-08T06:53:11;1.40;;;1.10;;
55190;SDS011;41070;50.360;18.742;2023-08-08T06:55:58;1.90;;;1.00;;
55190;SDS011;41070;50.360;18.742;2023-08-08T06:59:03;3.60;;;1.20;;
55190;SDS011;41070;50.360;18.742;2023-08-08T07:01:33;2.40;;;1.30;;
55190;SDS011;41070;50.360;18.742;2023-08-08T07:04:03;1.80;;;1.10;;
55190;SDS011;41070;50.360;18.742;2023-08-08T07:06:49;1.90;;;1.00;;
55190;SDS011;41070;50.360;18.742;2023-08-08T07:09:50;2.20;;;1.30;;
55190;SDS011;41070;50.360;18.742;2023-08-08T07:17:12;1.60;;;1.10;;
55190;SDS011;41070;50.360;18.742;2023-08-08T07:24:01;2.70;;;1.20;;
55190;SDS011;41070;50.360;18.742;2023-08-08T07:43:08;1.90;;;1.20;;
55190;SDS011;41070;50.360;18.742;2023-08-08T07:45:37;4.80;;;1.40;;
55190;SDS011;41070;50.360;18.742;2023-08-08T07:50:31;3.00;;;1.50;;
55190;SDS011;41070;50.360;18.742;2023-08-08T07:52:57;1.00;;;0.90;;
55190;SDS011;41070;50.360;18.742;2023-08-08T07:55:23;2.30;;;1.50;;
55190;SDS011;41070;50.360;18.742;2023-08-08T08:00:16;2.10;;;1.10;;
55190;SDS011;41070;50.360;18.742;2023-08-08T08:02:44;2.00;;;1.10;;
55190;SDS011;41070;50.360;18.742;2023-08-08T08:05:12;1.50;;;1.10;;
55190;SDS011;41070;50.360;18.742;2023-08-08T08:07:39;3.60;;;1.20;;
55190;SDS011;41070;50.360;18.742;2023-08-08T08:10:07;3.30;;;1.30;;
55190;SDS011;41070;50.360;18.742;2023-08-08T08:12:35;2.70;;;1.30;;
55190;SDS011;41070;50.360;18.742;2023-08-08T08:15:01;4.70;;;1.60;;
55190;SDS011;41070;50.360;18.742;2023-08-08T08:17:28;1.50;;;0.90;;
55190;SDS011;41070;50.360;18.742;2023-08-08T08:19:54;0.90;;;0.80;;
55190;SDS011;41070;50.360;18.742;2023-08-08T08:24:47;1.50;;;1.00;;
55190;SDS011;41070;50.360;18.742;2023-08-08T08:27:31;3.30;;;0.90;;
55190;SDS011;41070;50.360;18.742;2023-08-08T08:30:06;3.40;;;1.30;;
55190;SDS011;41070;50.360;18.742;2023-08-08T08:32:35;1.90;;;1.00;;
55190;SDS011;41070;50.360;18.742;2023-08-08T08:35:02;1.50;;;1.10;;
55190;SDS011;41070;50.360;18.742;2023-08-08T08:37:32;2.20;;;1.20;;
55190;SDS011;41070;50.360;18.742;2023-08-08T08:39:59;2.50;;;0.90;;
55190;SDS011;41070;50.360;18.742;2023-08-08T08:42:33;2.00;;;1.40;;
55190;SDS011;41070;50.360;18.742;2023-08-08T08:45:05;2.00;;;1.00;;
55190;SDS011;41070;50.360;18.742;2023-08-08T08:47:32;1.60;;;1.20;;
55190;SDS011;41070;50.360;18.742;2023-08-08T08:50:04;1.10;;;1.00;;
55190;SDS011;41070;50.360;18.742;2023-08-08T08:52:34;2.40;;;1.00;;
55190;SDS011;41070;50.360;18.742;2023-08-08T08:55:03;3.00;;;1.30;;
55190;SDS011;41070;50.360;18.742;2023-08-08T08:57:33;1.30;;;1.00;;
55190;SDS011;41070;50.360;18.742;2023-08-08T09:00:00;2.00;;;1.20;;
55190;SDS011;41070;50.360;18.742;2023-08-08T09:02:27;5.30;;;1.70;;
55190;SDS011;41070;50.360;18.742;2023-08-08T09:05:21;2.10;;;1.20;;
55190;SDS011;41070;50.360;18.742;2023-08-08T09:12:42;4.70;;;1.10;;
55190;SDS011;41070;50.360;18.742;2023-08-08T09:15:32;2.30;;;1.00;;
55190;SDS011;41070;50.360;18.742;2023-08-08T09:18:02;1.80;;;1.10;;
55190;SDS011;41070;50.360;18.742;2023-08-08T09:20:29;1.80;;;1.30;;
55190;SDS011;41070;50.360;18.742;2023-08-08T09:22:56;1.60;;;1.00;;
55190;SDS011;41070;50.360;18.742;2023-08-08T09:25:28;2.10;;;1.20;;
55190;SDS011;41070;50.360;18.742;2023-08-08T09:28:06;1.70;;;0.90;;
55190;SDS011;41070;50.360;18.742;2023-08-08T09:31:11;2.20;;;1.20;;
55190;SDS011;41070;50.360;18.742;2023-08-08T09:33:29;2.30;;;1.20;;
55190;SDS011;41070;50.360;18.742;2023-08-08T09:36:00;1.70;;;0.90;;
55190;SDS011;41070;50.360;18.742;2023-08-08T09:40:56;1.30;;;0.90;;
55190;SDS011;41070;50.360;18.742;2023-08-08T09:43:22;3.60;;;1.40;;
55190;SDS011;41070;50.360;18.742;2023-08-08T09:45:51;1.50;;;1.00;;
55190;SDS011;41070;50.360;18.742;2023-08-08T09:48:17;1.40;;;1.10;;
55190;SDS011;41070;50.360;18.742;2023-08-08T09:50:45;1.00;;;0.80;;
55190;SDS011;41070;50.360;18.742;2023-08-08T09:53:12;1.60;;;0.90;;
55190;SDS011;41070;50.360;18.742;2023-08-08T09:55:40;1.10;;;0.80;;
55190;SDS011;41070;50.360;18.742;2023-08-08T09:58:06;1.70;;;1.10;;
55190;SDS011;41070;50.360;18.742;2023-08-08T10:00:35;1.50;;;0.90;;
55190;SDS011;41070;50.360;18.742;2023-08-08T10:03:02;0.90;;;0.80;;
55190;SDS011;41070;50.360;18.742;2023-08-08T10:05:28;1.10;;;0.80;;
55190;SDS011;41070;50.360;18.742;2023-08-08T10:07:56;2.40;;;1.20;;
55190;SDS011;41070;50.360;18.742;2023-08-08T10:10:24;2.20;;;1.10;;
55190;SDS011;41070;50.360;18.742;2023-08-08T10:12:52;1.10;;;0.80;;
55190;SDS011;41070;50.360;18.742;2023-08-08T10:15:19;1.60;;;0.80;;
55190;SDS011;41070;50.360;18.742;2023-08-08T10:17:53;1.00;;;0.80;;
55190;SDS011;41070;50.360;18.742;2023-08-08T10:20:30;1.10;;;0.80;;
55190;SDS011;41070;50.360;18.742;2023-08-08T10:23:08;1.20;;;0.50;;
55190;SDS011;41070;50.360;18.742;2023-08-08T10:25:43;0.90;;;0.80;;
55190;SDS011;41070;50.360;18.742;2023-08-08T10:28:12;2.30;;;1.00;;
55190;SDS011;41070;50.360;18.742;2023-08-08T10:31:02;1.60;;;0.70;;
55190;SDS011;41070;50.360;18.742;2023-08-08T10:33:38;1.40;;;0.80;;
55190;SDS011;41070;50.360;18.742;2023-08-08T10:36:09;1.60;;;0.90;;
55190;SDS011;41070;50.360;18.742;2023-08-08T11:43:32;0.90;;;0.70;;
55190;SDS011;41070;50.360;18.742;2023-08-08T11:46:46;2.10;;;0.80;;
55190;SDS011;41070;50.360;18.742;2023-08-08T11:49:16;0.90;;;0.70;;
55190;SDS011;41070;50.360;18.742;2023-08-08T12:00:05;1.00;;;0.90;;
55190;SDS011;41070;50.360;18.742;2023-08-08T12:03:13;2.70;;;0.70;;
55190;SDS011;41070;50.360;18.742;2023-08-08T12:06:15;2.20;;;0.90;;
55190;SDS011;41070;50.360;18.742;2023-08-08T12:13:34;2.30;;;0.90;;
55190;SDS011;41070;50.360;18.742;2023-08-08T12:16:37;0.90;;;0.70;;
55190;SDS011;41070;50.360;18.742;2023-08-08T12:22:06;1.80;;;0.90;;
55190;SDS011;41070;50.360;18.742;2023-08-08T12:28:44;1.10;;;0.60;;
55190;SDS011;41070;50.360;18.742;2023-08-08T12:31:18;0.90;;;0.80;;
55190;SDS011;41070;50.360;18.742;2023-08-08T12:35:06;1.20;;;0.70;;
55190;SDS011;41070;50.360;18.742;2023-08-08T12:37:53;1.10;;;0.70;;
55190;SDS011;41070;50.360;18.742;2023-08-08T13:08:59;1.30;;;0.80;;
55190;SDS011;41070;50.360;18.742;2023-08-08T13:23:29;0.80;;;0.80;;
55190;SDS011;41070;50.360;18.742;2023-08-08T13:26:00;1.90;;;0.70;;
55190;SDS011;41070;50.360;18.742;2023-08-08T13:28:47;1.30;;;0.60;;
55190;SDS011;41070;50.360;18.742;2023-08-08T13:31:34;1.70;;;0.60;;
55190;SDS011;41070;50.360;18.742;2023-08-08T13:34:20;1.40;;;0.60;;
55190;SDS011;41070;50.360;18.742;2023-08-08T13:41:20;1.00;;;0.70;;
55190;SDS011;41070;50.360;18.742;2023-08-08T13:44:39;0.90;;;0.80;;
55190;SDS011;41070;50.360;18.742;2023-08-08T13:51:19;0.90;;;0.70;;
55190;SDS011;41070;50.360;18.742;2023-08-08T13:57:49;1.80;;;0.80;;
55190;SDS011;41070;50.360;18.742;2023-08-08T14:01:26;3.10;;;1.60;;
55190;SDS011;41070;50.360;18.742;2023-08-08T14:04:36;1.20;;;0.60;;
55190;SDS011;41070;50.360;18.742;2023-08-08T14:07:54;1.30;;;1.00;;
55190;SDS011;41070;50.360;18.742;2023-08-08T14:11:00;1.10;;;1.00;;
55190;SDS011;41070;50.360;18.742;2023-08-08T14:14:08;1.10;;;0.80;;
55190;SDS011;41070;50.360;18.742;2023-08-08T14:17:13;2.00;;;0.90;;
55190;SDS011;41070;50.360;18.742;2023-08-08T14:20:12;1.20;;;0.90;;
55190;SDS011;41070;50.360;18.742;2023-08-08T14:23:16;1.30;;;0.80;;
55190;SDS011;41070;50.360;18.742;2023-08-08T14:26:38;2.10;;;0.90;;
55190;SDS011;41070;50.360;18.742;2023-08-08T14:29:22;0.90;;;0.80;;
55190;SDS011;41070;50.360;18.742;2023-08-08T14:31:49;1.30;;;0.70;;
55190;SDS011;41070;50.360;18.742;2023-08-08T14:34:15;1.30;;;0.70;;
55190;SDS011;41070;50.360;18.742;2023-08-08T14:36:45;1.90;;;1.10;;
55190;SDS011;41070;50.360;18.742;2023-08-08T14:39:12;1.60;;;0.90;;
55190;SDS011;41070;50.360;18.742;2023-08-08T14:42:23;2.50;;;0.70;;
55190;SDS011;41070;50.360;18.742;2023-08-08T15:08:44;1.70;;;1.00;;
55190;SDS011;41070;50.360;18.742;2023-08-08T15:11:11;1.40;;;0.90;;
55190;SDS011;41070;50.360;18.742;2023-08-08T15:13:37;2.00;;;0.80;;
55190;SDS011;41070;50.360;18.742;2023-08-08T15:16:07;2.40;;;0.90;;
55190;SDS011;41070;50.360;18.742;2023-08-08T15:18:39;4.20;;;1.10;;
55190;SDS011;41070;50.360;18.742;2023-08-08T15:21:13;1.40;;;0.90;;
55190;SDS011;41070;50.360;18.742;2023-08-08T15:23:54;1.30;;;0.90;;
55190;SDS011;41070;50.360;18.742;2023-08-08T15:26:24;2.30;;;1.10;;
55190;SDS011;41070;50.360;18.742;2023-08-08T15:29:26;1.90;;;1.00;;
55190;SDS011;41070;50.360;18.742;2023-08-08T15:31:53;2.90;;;1.50;;
55190;SDS011;41070;50.360;18.742;2023-08-08T15:34:29;1.40;;;1.00;;
55190;SDS011;41070;50.360;18.742;2023-08-08T15:36:58;1.60;;;1.10;;
55190;SDS011;41070;50.360;18.742;2023-08-08T15:39:36;1.60;;;1.10;;
55190;SDS011;41070;50.360;18.742;2023-08-08T15:42:07;1.80;;;1.00;;
55190;SDS011;41070;50.360;18.742;2023-08-08T15:44:34;2.10;;;1.30;;
55190;SDS011;41070;50.360;18.742;2023-08-08T15:47:01;3.20;;;1.00;;
55190;SDS011;41070;50.360;18.742;2023-08-08T15:49:32;3.90;;;1.50;;
55190;SDS011;41070;50.360;18.742;2023-08-08T15:51:58;3.30;;;1.40;;
55190;SDS011;41070;50.360;18.742;2023-08-08T15:54:28;1.70;;;1.30;;
55190;SDS011;41070;50.360;18.742;2023-08-08T15:57:01;4.00;;;1.70;;
55190;SDS011;41070;50.360;18.742;2023-08-08T15:59:31;4.40;;;2.40;;
55190;SDS011;41070;50.360;18.742;2023-08-08T16:01:57;3.40;;;1.80;;
55190;SDS011;41070;50.360;18.742;2023-08-08T16:04:24;4.30;;;1.80;;
55190;SDS011;41070;50.360;18.742;2023-08-08T16:06:57;3.10;;;1.50;;
55190;SDS011;41070;50.360;18.742;2023-08-08T16:09:26;1.80;;;1.30;;
55190;SDS011;41070;50.360;18.742;2023-08-08T16:11:58;3.30;;;1.90;;
55190;SDS011;41070;50.360;18.742;2023-08-08T16:14:39;4.60;;;1.80;;
55190;SDS011;41070;50.360;18.742;2023-08-08T16:17:10;3.90;;;1.60;;
55190;SDS011;41070;50.360;18.742;2023-08-08T16:19:39;2.90;;;1.50;;
55190;SDS011;41070;50.360;18.742;2023-08-08T16:22:23;3.50;;;1.80;;
55190;SDS011;41070;50.360;18.742;2023-08-08T16:32:32;3.90;;;2.10;;
55190;SDS011;41070;50.360;18.742;2023-08-08T16:38:21;2.40;;;1.50;;
55190;SDS011;41070;50.360;18.742;2023-08-08T16:41:29;1.50;;;1.30;;
55190;SDS011;41070;50.360;18.742;2023-08-08T16:51:30;1.50;;;1.40;;
55190;SDS011;41070;50.360;18.742;2023-08-08T16:57:59;2.60;;;1.10;;
55190;SDS011;41070;50.360;18.742;2023-08-08T17:01:18;1.90;;;1.20;;
55190;SDS011;41070;50.360;18.742;2023-08-08T17:03:45;5.30;;;1.50;;
55190;SDS011;41070;50.360;18.742;2023-08-08T17:07:05;4.00;;;1.30;;
55190;SDS011;41070;50.360;18.742;2023-08-08T17:10:11;2.50;;;1.30;;
55190;SDS011;41070;50.360;18.742;2023-08-08T17:13:01;1.80;;;1.30;;
55190;SDS011;41070;50.360;18.742;2023-08-08T17:15:39;3.10;;;1.50;;
55190;SDS011;41070;50.360;18.742;2023-08-08T17:18:46;2.90;;;1.90;;
55190;SDS011;41070;50.360;18.742;2023-08-08T17:21:46;4.40;;;2.10;;
55190;SDS011;41070;50.360;18.742;2023-08-08T17:27:53;2.60;;;1.60;;
55190;SDS011;41070;50.360;18.742;2023-08-08T17:30:50;1.80;;;1.30;;
55190;SDS011;41070;50.360;18.742;2023-08-08T17:33:21;2.60;;;1.30;;
55190;SDS011;41070;50.360;18.742;2023-08-08T17:36:03;2.40;;;1.80;;
55190;SDS011;41070;50.360;18.742;2023-08-08T17:39:00;6.40;;;5.70;;
55190;SDS011;41070;50.360;18.742;2023-08-08T17:41:27;3.20;;;2.50;;
55190;SDS011;41070;50.360;18.742;2023-08-08T17:43:53;3.80;;;2.60;;
55190;SDS011;41070;50.360;18.742;2023-08-08T17:46:21;4.30;;;3.00;;
55190;SDS011;41070;50.360;18.742;2023-08-08T17:48:48;9.30;;;4.20;;
55190;SDS011;41070;50.360;18.742;2023-08-08T17:54:25;2.80;;;2.50;;
55190;SDS011;41070;50.360;18.742;2023-08-08T17:56:52;5.70;;;2.40;;
55190;SDS011;41070;50.360;18.742;2023-08-08T17:59:43;5.40;;;2.10;;
55190;SDS011;41070;50.360;18.742;2023-08-08T18:14:59;3.10;;;2.20;;
55190;SDS011;41070;50.360;18.742;2023-08-08T18:17:28;3.70;;;2.50;;
55190;SDS011;41070;50.360;18.742;2023-08-08T18:20:00;4.60;;;2.00;;
55190;SDS011;41070;50.360;18.742;2023-08-08T18:22:28;3.00;;;2.30;;
55190;SDS011;41070;50.360;18.742;2023-08-08T18:30:48;5.20;;;2.70;;
55190;SDS011;41070;50.360;18.742;2023-08-08T18:33:14;5.00;;;2.60;;
55190;SDS011;41070;50.360;18.742;2023-08-08T18:39:04;7.50;;;2.70;;
55190;SDS011;41070;50.360;18.742;2023-08-08T18:42:10;5.10;;;2.60;;
55190;SDS011;41070;50.360;18.742;2023-08-08T18:45:10;2.90;;;2.30;;
55190;SDS011;41070;50.360;18.742;2023-08-08T18:48:05;4.10;;;2.50;;
55190;SDS011;41070;50.360;18.742;2023-08-08T18:50:35;3.40;;;2.40;;
55190;SDS011;41070;50.360;18.742;2023-08-08T18:53:15;3.70;;;2.10;;
55190;SDS011;41070;50.360;18.742;2023-08-08T18:59:23;3.20;;;2.20;;
55190;SDS011;41070;50.360;18.742;2023-08-08T19:01:53;2.40;;;1.90;;
55190;SDS011;41070;50.360;18.742;2023-08-08T19:11:37;3.80;;;2.30;;
55190;SDS011;41070;50.360;18.742;2023-08-08T19:17:18;3.70;;;2.40;;
55190;SDS011;41070;50.360;18.742;2023-08-08T19:22:24;3.50;;;2.10;;
55190;SDS011;41070;50.360;18.742;2023-08-08T19:24:51;2.30;;;1.70;;
55190;SDS011;41070;50.360;18.742;2023-08-08T19:27:19;3.70;;;2.30;;
55190;SDS011;41070;50.360;18.742;2023-08-08T19:29:46;3.00;;;2.10;;
55190;SDS011;41070;50.360;18.742;2023-08-08T19:32:18;3.40;;;2.20;;
55190;SDS011;41070;50.360;18.742;2023-08-08T19:34:48;4.50;;;2.30;;
55190;SDS011;41070;50.360;18.742;2023-08-08T19:38:01;2.40;;;2.10;;
55190;SDS011;41070;50.360;18.742;2023-08-08T19:40:55;3.10;;;2.30;;
55190;SDS011;41070;50.360;18.742;2023-08-08T19:43:30;3.50;;;2.60;;
55190;SDS011;41070;50.360;18.742;2023-08-08T19:46:23;3.20;;;2.10;;
55190;SDS011;41070;50.360;18.742;2023-08-08T19:53:43;6.40;;;2.70;;
55190;SDS011;41070;50.360;18.742;2023-08-08T19:56:09;4.90;;;2.60;;
55190;SDS011;41070;50.360;18.742;2023-08-08T20:01:18;4.80;;;2.70;;
55190;SDS011;41070;50.360;18.742;2023-08-08T20:03:46;5.00;;;2.40;;
55190;SDS011;41070;50.360;18.742;2023-08-08T20:06:16;4.20;;;2.90;;